createdAt,value
2022-10-18T00:13:37.581Z,69.90625
2022-10-18T01:58:14.275Z,68.33789063
2022-10-18T01:59:03.379Z,68.52929688
2022-10-18T10:30:43.773Z,68.47265625
2022-10-18T11:03:58.391Z,67.18066406
2022-10-18T11:08:39.978Z,66.75097656
2022-10-18T11:13:42.725Z,65.58886719
2022-10-18T11:18:43.029Z,66.04589844
2022-10-18T11:44:03.012Z,63.76660156
2022-10-18T13:05:06.801Z,57.80371094
2022-10-18T13:05:16.518Z,57.80371094
2022-10-18T13:05:26.986Z,57.80371094
2022-10-18T13:06:48.055Z,59.0078125
2022-10-18T13:42:28.840Z,56.1875
2022-10-18T13:43:10.735Z,55.91796875
2022-10-18T13:45:51.655Z,57.12988281
2022-10-18T13:46:32.837Z,57.23828125
2022-10-18T13:47:30.565Z,58.26757813
2022-10-18T14:39:41.081Z,51.54882813
2022-10-18T14:40:22.423Z,51.06152344
2022-10-18T14:41:18.334Z,52.5
2022-10-18T15:00:17.624Z,52.18457031
2022-10-18T16:28:59.158Z,56.25195313
2022-10-18T16:59:30.836Z,57.70507813
2022-10-18T17:00:28.383Z,57.70996094
2022-10-18T17:01:32.764Z,58.32324219
2022-10-18T17:02:27.353Z,59.41894531
2022-10-18T17:03:31.608Z,60.65820313
2022-10-18T17:04:29.758Z,61.02246094
2022-10-18T17:06:29.467Z,62.45117188
2022-10-18T17:07:23.805Z,62.94726563
2022-10-18T17:08:30.104Z,63.92089844
2022-10-18T17:09:23.131Z,64.14257813
2022-10-18T17:10:22.105Z,65.06054688
2022-10-18T17:11:18.406Z,65.43164063
2022-10-18T17:12:14.456Z,65.65527344
2022-10-18T17:13:16.080Z,65.82421875
2022-10-18T17:14:13.410Z,66.2265625
2022-10-18T17:16:10.354Z,66.87207031
2022-10-18T17:17:07.750Z,66.87597656
2022-10-18T17:18:03.012Z,67.51269531
2022-10-18T17:19:06.913Z,67.83300781
2022-10-18T17:20:05.156Z,68.06640625
2022-10-18T17:21:05.050Z,67.86230469
2022-10-18T17:22:02.600Z,68.13476563
2022-10-18T17:22:57.190Z,68.31933594
2022-10-18T17:23:49.664Z,68.48144531
2022-10-18T17:24:45.733Z,68.55664063
2022-10-18T17:25:57.585Z,68.58496094
2022-10-18T17:26:05.011Z,68.58496094
2022-10-18T17:26:41.104Z,69.20507813
2022-10-18T17:27:36.273Z,68.88964844
2022-10-18T17:28:33.684Z,69.02246094
2022-10-18T17:29:29.491Z,69.04003906
2022-10-18T17:30:23.269Z,69.08007813
2022-10-18T17:31:20.355Z,69.30859375
2022-10-18T17:32:17.577Z,69.62988281
2022-10-18T17:33:15.052Z,69.84863281
2022-10-18T17:34:17.591Z,69.92285156
2022-10-18T17:34:21.321Z,69.92285156
2022-10-18T17:35:46.691Z,69.80761719
2022-10-18T17:36:27.297Z,69.73535156
2022-10-18T17:37:27.286Z,69.64453125
2022-10-18T17:38:29.509Z,69.45898438
2022-10-18T17:39:27.818Z,69.84960938
2022-10-18T17:40:28.064Z,70.3203125
2022-10-18T17:41:23.429Z,70.21191406
2022-10-18T17:42:23.340Z,70.328125
2022-10-18T17:43:21.943Z,70.59277344
2022-10-18T17:44:23.008Z,70.56445313
2022-10-18T17:46:20.643Z,70.81347656
2022-10-18T17:47:19.573Z,71.12792969
2022-10-18T17:48:13.983Z,71.29589844
2022-10-18T17:49:13.105Z,70.98730469
2022-10-18T17:51:13.975Z,71.10351563
2022-10-18T17:52:08.781Z,71.27050781
2022-10-18T17:53:07.992Z,71.3203125
2022-10-18T17:54:08.817Z,71.96191406
2022-10-18T17:55:02.943Z,71.8203125
2022-10-18T17:56:02.944Z,71.92871094
2022-10-18T17:56:58.885Z,72.49511719
2022-10-18T17:58:01.780Z,72.06152344
2022-10-18T17:59:07.742Z,71.72070313
2022-10-18T18:00:05.928Z,71.6171875
2022-10-18T18:01:07.727Z,72.02929688
2022-10-18T18:02:00.886Z,72.00488281
2022-10-18T18:03:05.433Z,72.38964844
2022-10-18T18:04:04.305Z,72.4765625
2022-10-18T18:04:59.631Z,72.66894531
2022-10-18T18:06:01.679Z,72
2022-10-18T18:07:01.980Z,71.80175781
2022-10-18T18:08:03.872Z,72.01953125
2022-10-18T18:08:56.491Z,72.51757813
2022-10-18T18:10:52.857Z,72.65625
2022-10-18T18:11:57.274Z,72.81152344
2022-10-18T18:12:52.029Z,72.61914063
2022-10-18T18:13:51.911Z,72.00683594
2022-10-18T18:14:57.521Z,72.28808594
2022-10-18T18:15:49.299Z,72.07910156
2022-10-18T18:16:50.595Z,72.65234375
2022-10-18T18:34:52.309Z,63.36914063
2022-10-18T18:35:31.434Z,63.15917969
2022-10-18T18:36:28.638Z,63.41601563
2022-10-18T18:37:32.429Z,63.90820313
2022-10-18T18:38:30.871Z,64.78027344
2022-10-18T18:39:25.217Z,65.09667969
2022-10-18T18:40:22.731Z,66.35253906
2022-10-18T18:41:17.101Z,66.62207031
2022-10-18T18:42:15.547Z,67.20410156
2022-10-18T18:43:22.686Z,67.94628906
2022-10-18T18:43:23.624Z,67.94628906
2022-10-18T18:43:23.894Z,67.94628906
2022-10-18T18:44:09.237Z,67.78515625
2022-10-18T18:45:03.385Z,68.21875
2022-10-18T18:46:05.511Z,68.12011719
2022-10-18T18:47:07.429Z,68.67871094
2022-10-18T18:47:13.304Z,68.67871094
2022-10-18T18:48:03.635Z,69.1015625
2022-10-18T18:49:06.300Z,69.11328125
2022-10-18T18:51:02.556Z,69.89648438
2022-10-18T18:52:00.588Z,70.3984375
2022-10-18T18:52:57.437Z,70.13085938
2022-10-18T18:53:54.835Z,70.68164063
2022-10-18T18:54:49.877Z,70.74511719
2022-10-18T18:55:54.647Z,70.55566406
2022-10-18T18:56:52.879Z,70.9765625
2022-10-18T18:57:47.025Z,71.015625
2022-10-18T18:58:43.683Z,70.875
2022-10-18T19:00:41.705Z,70.99902344
2022-10-18T19:00:44.460Z,70.99902344
2022-10-18T19:01:31.366Z,70.734375
2022-10-18T19:02:29.660Z,70.60644531
2022-10-18T19:03:32.664Z,71.19238281
2022-10-18T19:05:38.241Z,71.359375
2022-10-18T19:06:30.888Z,71.1328125
2022-10-18T19:07:27.923Z,71.1171875
2022-10-18T19:08:20.101Z,71.12109375
2022-10-18T19:09:19.924Z,71.36425781
2022-10-18T19:10:11.014Z,71.12695313
2022-10-18T19:11:11.157Z,71.53808594
2022-10-18T19:12:07.519Z,71.33691406
2022-10-18T19:13:05.582Z,71.74121094
2022-10-18T19:14:07.233Z,71.9921875
2022-10-18T19:15:01.539Z,71.94824219
2022-10-18T19:15:58.528Z,72.14550781
2022-10-18T19:16:52.668Z,71.90429688
2022-10-18T19:17:50.822Z,71.96777344
2022-10-18T19:18:45.115Z,72.14453125
2022-10-18T19:20:36.085Z,72.453125
2022-10-18T19:21:29.713Z,72.49414063
2022-10-18T19:22:25.665Z,72.53613281
2022-10-18T19:24:27.560Z,72
2022-10-18T19:25:10.930Z,71.60644531
2022-10-18T19:26:10.141Z,71.80859375
2022-10-18T19:27:09.104Z,71.62011719
2022-10-18T19:28:05.469Z,71.99609375
2022-10-18T19:29:07.432Z,72.3515625
2022-10-18T19:31:03.259Z,72.30859375
2022-10-18T19:31:59.451Z,71.984375
2022-10-18T19:33:03.567Z,72.20507813
2022-10-18T19:33:59.961Z,72.19042969
2022-10-18T19:35:54.177Z,72.42480469
2022-10-18T19:36:53.128Z,72.80273438
2022-10-18T19:37:51.419Z,72.640625
2022-10-18T19:38:54.693Z,72.57910156
2022-10-18T19:39:54.960Z,72.62011719
2022-10-18T19:40:54.105Z,72.88476563
2022-10-18T19:41:59.381Z,73.27441406
2022-10-18T19:43:02.599Z,73.70996094
2022-10-18T19:44:00.782Z,73.33398438
2022-10-18T19:45:57.084Z,73.4375
2022-10-18T19:46:52.646Z,73.12988281
2022-10-18T19:47:54.678Z,73.21582031
2022-10-18T19:48:48.142Z,73.82421875
2022-10-18T19:50:44.576Z,73.56933594
2022-10-18T19:51:51.833Z,73.46386719
2022-10-18T19:52:47.988Z,73.52050781
2022-10-18T19:53:47.367Z,73.12109375
2022-10-18T19:54:46.435Z,73.55371094
2022-10-18T19:55:45.700Z,73.32324219
2022-10-18T19:56:45.301Z,73.22949219
2022-10-18T19:57:42.377Z,73.45117188
2022-10-18T19:58:43.661Z,73.68847656
2022-10-18T19:59:35.723Z,73.33886719
2022-10-18T20:00:35.350Z,73.32910156
2022-10-18T20:01:34.350Z,73.30078125
2022-10-18T20:02:33.747Z,73.55664063
2022-10-18T20:03:36.107Z,73.82421875
2022-10-18T20:04:35.243Z,73.53125
2022-10-18T20:06:06.717Z,73.60742188
2022-10-18T20:06:48.515Z,73.62988281
2022-10-18T20:07:48.571Z,73.36328125
2022-10-18T20:08:48.292Z,73.38574219
2022-10-18T20:19:38.539Z,65.40820313
2022-10-18T21:54:56.350Z,59.43261719
2022-10-18T21:55:36.339Z,59.05957031
2022-10-18T21:56:35.958Z,59.81835938
2022-10-18T21:58:28.743Z,61.77148438
2022-10-18T21:59:30.226Z,62.69726563
2022-10-18T22:01:24.709Z,64.45605469
2022-10-18T22:02:17.401Z,65.21191406
2022-10-18T22:03:14.546Z,65.37695313
2022-10-18T22:04:10.728Z,66.21484375
2022-10-18T22:31:57.784Z,67.46484375
2022-10-18T22:32:04.958Z,69.42089844
2022-10-18T22:33:05.804Z,69.0546875
2022-10-18T22:34:00.583Z,69.375
2022-10-18T22:34:59.283Z,69.55761719
2022-10-18T22:36:01.310Z,69.55175781
2022-10-18T22:36:56.599Z,69.921875
2022-10-18T22:37:57.906Z,70.55371094
2022-10-18T22:38:54.305Z,70.47851563
2022-10-18T22:40:52.318Z,71.06152344
2022-10-18T22:41:54.832Z,71.1875
2022-10-18T22:42:49.468Z,71.23535156
2022-10-18T22:43:51.665Z,71.59765625
2022-10-18T22:45:49.869Z,71.8671875
2022-10-18T22:46:47.907Z,71.55273438
2022-10-18T22:47:48.045Z,72.0859375
2022-10-18T22:48:42.404Z,71.95410156
2022-10-18T22:50:40.193Z,72.43652344
2022-10-18T22:51:39.208Z,72.46289063
2022-10-18T22:52:37.295Z,72.12988281
2022-10-18T22:53:40.130Z,73.02929688
2022-10-18T22:54:39.295Z,72.42382813
2022-10-18T22:55:46.431Z,72.33886719
2022-10-18T22:56:44.855Z,72.34570313
2022-10-18T22:57:44.747Z,72.09375
2022-10-18T22:58:57.858Z,72.45605469
2022-10-18T23:00:56.126Z,72.71484375
2022-10-18T23:05:39.884Z,68.82128906
2022-10-18T23:06:38.475Z,69.03222656
2022-10-18T23:14:26.473Z,65.54003906
2022-10-18T23:16:06.699Z,64.80761719
2022-10-18T23:17:06.147Z,65.10253906
2022-10-18T23:18:05.340Z,65.84765625
2022-10-18T23:19:06.072Z,66.89941406
2022-10-18T23:29:27.011Z,63.28417969
2022-10-18T23:31:09.011Z,63.36621094
2022-10-18T23:32:09.437Z,64.16113281
2022-10-18T23:33:06.013Z,64.81542969
2022-10-18T23:34:04.189Z,65.32714844
2022-10-18T23:35:49.223Z,66.41796875
2022-10-18T23:36:34.023Z,66.86621094
2022-10-18T23:37:31.964Z,67.51464844
2022-10-18T23:38:29.850Z,67.73144531
2022-10-18T23:54:56.752Z,62.22558594
2022-10-18T23:55:38.807Z,61.76855469
2022-10-18T23:56:38.351Z,62.31835938
2022-10-18T23:57:40.885Z,62.87011719
